createdAt,value
2022-07-29T00:02:27.943Z,4.85
2022-07-29T00:04:55.214Z,3.70
2022-07-29T00:07:22.087Z,4.32
2022-07-29T00:09:51.995Z,6.57
2022-07-29T00:12:25.576Z,4.35
2022-07-29T00:14:57.543Z,6.75
2022-07-29T00:17:25.207Z,3.50
2022-07-29T00:19:52.485Z,3.55
2022-07-29T00:22:19.828Z,6.83
2022-07-29T00:24:48.543Z,4.90
2022-07-29T00:27:15.293Z,5.13
2022-07-29T00:29:42.004Z,4.97
2022-07-29T00:32:08.778Z,4.53
2022-07-29T00:34:54.376Z,7.47
2022-07-29T00:37:21.107Z,3.40
2022-07-29T00:39:48.395Z,2.58
2022-07-29T00:42:15.107Z,3.92
2022-07-29T00:44:42.645Z,4.07
2022-07-29T00:47:10.652Z,4.37
2022-07-29T00:49:39.621Z,4.32
2022-07-29T00:52:07.629Z,3.58
2022-07-29T00:54:35.770Z,3.00
2022-07-29T00:57:04.526Z,4.28
2022-07-29T00:59:34.779Z,5.93
2022-07-29T01:02:05.493Z,3.08
2022-07-29T01:04:32.839Z,4.10
2022-07-29T01:07:02.116Z,10.57
2022-07-29T01:09:42.150Z,3.92
2022-07-29T01:12:22.649Z,5.87
2022-07-29T01:14:50.321Z,5.03
2022-07-29T01:17:53.689Z,4.28
2022-07-29T01:20:41.029Z,3.72
2022-07-29T01:23:10.757Z,4.53
2022-07-29T01:25:56.293Z,4.93
2022-07-29T01:28:45.865Z,5.57
2022-07-29T01:31:25.261Z,4.25
2022-07-29T01:34:01.212Z,3.28
2022-07-29T01:36:34.542Z,4.45
2022-07-29T01:39:09.462Z,5.57
2022-07-29T01:41:40.936Z,3.67
2022-07-29T01:44:18.714Z,5.50
2022-07-29T01:46:53.320Z,5.50
2022-07-29T01:49:26.612Z,6.15
2022-07-29T01:52:11.698Z,4.47
2022-07-29T01:54:47.034Z,4.05
2022-07-29T01:57:18.292Z,3.38
2022-07-29T01:59:47.447Z,4.63
2022-07-29T02:02:17.446Z,4.68
2022-07-29T02:04:50.881Z,3.53
2022-07-29T02:07:24.190Z,5.10
2022-07-29T02:09:52.907Z,6.30
2022-07-29T02:12:21.643Z,8.15
2022-07-29T02:14:52.324Z,4.22
2022-07-29T02:17:30.015Z,5.63
2022-07-29T02:20:00.195Z,3.88
2022-07-29T02:22:30.483Z,4.40
2022-07-29T02:24:59.243Z,4.55
2022-07-29T02:27:29.353Z,7.13
2022-07-29T02:29:59.429Z,4.97
2022-07-29T02:32:28.502Z,5.35
2022-07-29T02:34:56.809Z,5.05
2022-07-29T02:37:24.931Z,5.15
2022-07-29T02:39:54.856Z,5.80
2022-07-29T02:42:23.716Z,5.67
2022-07-29T02:44:50.839Z,5.68
2022-07-29T02:47:25.472Z,3.67
2022-07-29T02:50:00.621Z,3.88
2022-07-29T02:52:31.297Z,4.40
2022-07-29T02:55:03.125Z,5.20
2022-07-29T02:57:54.996Z,4.57
2022-07-29T03:00:31.257Z,5.47
2022-07-29T03:03:04.561Z,4.63
2022-07-29T03:05:32.408Z,4.80
2022-07-29T03:08:06.027Z,4.57
2022-07-29T03:10:33.237Z,4.78
2022-07-29T03:13:01.396Z,4.40
2022-07-29T03:15:28.919Z,8.15
2022-07-29T03:17:56.563Z,4.07
2022-07-29T03:20:23.947Z,4.20
2022-07-29T03:22:51.056Z,4.70
2022-07-29T03:25:19.877Z,4.75
2022-07-29T03:27:47.725Z,5.53
2022-07-29T03:30:18.393Z,6.28
2022-07-29T03:32:52.216Z,5.63
2022-07-29T03:35:20.599Z,5.88
2022-07-29T03:37:48.120Z,5.65
2022-07-29T03:40:24.428Z,6.43
2022-07-29T03:42:54.802Z,5.90
2022-07-29T03:45:22.377Z,4.90
2022-07-29T03:47:59.897Z,6.13
2022-07-29T03:50:29.579Z,4.30
2022-07-29T03:52:56.433Z,3.50
2022-07-29T03:55:23.449Z,7.47
2022-07-29T03:57:51.407Z,7.60
2022-07-29T04:00:18.581Z,4.35
2022-07-29T04:02:49.112Z,4.65
2022-07-29T04:05:16.308Z,6.50
2022-07-29T04:07:47.507Z,8.27
2022-07-29T04:10:16.610Z,6.03
2022-07-29T04:12:44.022Z,4.00
2022-07-29T04:15:11.418Z,5.10
2022-07-29T04:17:38.763Z,4.80
2022-07-29T04:20:06.110Z,4.00
2022-07-29T04:22:32.905Z,5.20
2022-07-29T04:25:04.007Z,5.80
2022-07-29T04:27:31.188Z,5.28
2022-07-29T04:29:57.937Z,4.75
2022-07-29T04:32:26.277Z,4.95
2022-07-29T04:34:53.587Z,3.90
2022-07-29T04:37:20.363Z,5.50
2022-07-29T04:39:47.052Z,3.72
2022-07-29T04:42:13.868Z,5.28
2022-07-29T04:44:43.153Z,4.28
2022-07-29T04:47:10.529Z,4.97
2022-07-29T04:49:40.463Z,4.32
2022-07-29T04:52:07.802Z,5.35
2022-07-29T04:54:34.634Z,6.88
2022-07-29T04:57:01.415Z,4.38
2022-07-29T04:59:28.201Z,9.30
2022-07-29T05:01:55.085Z,8.40
2022-07-29T05:04:21.885Z,5.50
2022-07-29T05:06:48.818Z,5.25
2022-07-29T05:09:15.674Z,4.60
2022-07-29T05:11:42.479Z,6.43
2022-07-29T05:14:09.295Z,6.53
2022-07-29T05:16:36.285Z,5.80
2022-07-29T05:19:03.059Z,5.15
2022-07-29T05:21:29.745Z,5.07
2022-07-29T05:23:56.610Z,6.33
2022-07-29T05:26:23.374Z,5.72
2022-07-29T05:28:50.450Z,7.03
2022-07-29T05:31:17.424Z,6.00
2022-07-29T05:33:44.398Z,5.63
2022-07-29T05:36:11.112Z,8.13
2022-07-29T05:38:38.221Z,6.13
2022-07-29T05:41:06.062Z,6.63
2022-07-29T05:43:33.037Z,5.72
2022-07-29T05:46:00.207Z,5.10
2022-07-29T05:48:27.440Z,4.10
2022-07-29T05:50:54.295Z,6.43
2022-07-29T05:53:21.438Z,6.35
2022-07-29T05:55:49.206Z,7.63
2022-07-29T05:58:16.430Z,6.78
2022-07-29T06:00:43.585Z,4.57
2022-07-29T06:03:10.412Z,6.35
2022-07-29T06:05:37.549Z,5.82
2022-07-29T06:08:08.359Z,4.97
2022-07-29T06:10:38.510Z,6.00
2022-07-29T06:13:05.565Z,4.97
2022-07-29T06:15:32.687Z,4.90
2022-07-29T06:18:01.221Z,5.40
2022-07-29T06:20:32.429Z,5.80
2022-07-29T06:23:00.232Z,6.03
2022-07-29T06:25:30.018Z,5.57
2022-07-29T06:27:57.617Z,5.85
2022-07-29T06:30:24.592Z,6.45
2022-07-29T06:32:51.362Z,8.63
2022-07-29T06:35:39.490Z,6.85
2022-07-29T06:38:12.024Z,10.00
2022-07-29T06:41:04.556Z,7.00
2022-07-29T06:43:51.880Z,5.07
2022-07-29T06:46:21.854Z,5.40
2022-07-29T06:48:49.351Z,4.53
2022-07-29T06:51:17.300Z,7.30
2022-07-29T06:53:59.737Z,6.50
2022-07-29T06:56:39.269Z,8.55
2022-07-29T06:59:07.944Z,5.80
2022-07-29T07:01:34.881Z,5.78
2022-07-29T07:04:01.769Z,8.73
2022-07-29T07:06:28.835Z,5.90
2022-07-29T07:08:55.725Z,4.45
2022-07-29T07:11:22.548Z,6.65
2022-07-29T07:13:49.380Z,6.15
2022-07-29T07:16:16.813Z,8.30
2022-07-29T07:18:45.928Z,9.00
2022-07-29T07:21:12.971Z,5.93
2022-07-29T07:23:46.575Z,8.43
2022-07-29T07:26:13.459Z,5.50
2022-07-29T07:28:40.313Z,7.33
2022-07-29T07:31:07.085Z,5.63
2022-07-29T07:33:33.903Z,6.03
2022-07-29T07:36:00.785Z,5.60
2022-07-29T07:38:28.036Z,5.75
2022-07-29T07:40:54.814Z,5.73
2022-07-29T07:43:22.722Z,6.93
2022-07-29T07:45:49.522Z,8.38
2022-07-29T07:48:16.257Z,6.85
2022-07-29T07:50:44.562Z,5.13
2022-07-29T07:53:11.761Z,5.90
2022-07-29T07:58:30.694Z,5.05
2022-07-29T08:00:57.576Z,4.95
2022-07-29T08:03:24.458Z,5.30
2022-07-29T08:05:55.192Z,9.20
2022-07-29T08:08:22.081Z,6.10
2022-07-29T08:10:54.711Z,5.18
2022-07-29T08:13:23.976Z,6.45
2022-07-29T08:16:01.725Z,7.25
2022-07-29T08:18:30.619Z,7.87
2022-07-29T08:20:58.532Z,4.45
2022-07-29T08:23:25.550Z,7.05
2022-07-29T08:25:52.469Z,5.97
2022-07-29T08:28:22.160Z,6.28
2022-07-29T08:30:53.092Z,6.17
2022-07-29T08:33:19.830Z,4.75
2022-07-29T08:35:46.763Z,9.80
2022-07-29T08:38:13.552Z,5.95
2022-07-29T08:40:40.731Z,7.82
2022-07-29T08:43:09.238Z,6.77
2022-07-29T08:45:47.341Z,5.97
2022-07-29T08:48:16.699Z,7.60
2022-07-29T08:50:46.425Z,5.82
2022-07-29T08:53:15.598Z,4.30
2022-07-29T08:55:48.353Z,5.70
2022-07-29T08:58:15.900Z,6.95
2022-07-29T09:00:46.320Z,5.72
2022-07-29T09:03:21.318Z,5.10
2022-07-29T09:05:49.179Z,6.75
2022-07-29T09:08:17.809Z,6.60
2022-07-29T09:10:45.508Z,5.95
2022-07-29T09:13:12.791Z,5.57
2022-07-29T09:15:39.628Z,4.78
2022-07-29T09:18:06.394Z,7.65
2022-07-29T09:20:53.554Z,7.57
2022-07-29T09:23:23.233Z,7.32
2022-07-29T09:25:51.652Z,9.80
2022-07-29T09:28:19.181Z,7.63
2022-07-29T09:30:53.229Z,4.32
2022-07-29T09:33:21.117Z,5.50
2022-07-29T09:36:00.394Z,7.05
2022-07-29T09:38:29.343Z,6.90
2022-07-29T09:41:06.083Z,7.70
2022-07-29T09:43:33.892Z,5.45
2022-07-29T09:46:14.262Z,6.73
2022-07-29T09:48:41.177Z,4.72
2022-07-29T09:51:25.476Z,5.18
2022-07-29T09:53:56.788Z,7.93
2022-07-29T09:56:43.151Z,5.70
2022-07-29T09:59:12.052Z,4.80
2022-07-29T10:01:38.904Z,7.30
2022-07-29T10:04:05.832Z,7.20
2022-07-29T10:06:32.560Z,7.70
2022-07-29T10:09:12.296Z,7.10
2022-07-29T10:11:49.552Z,9.27
2022-07-29T10:14:17.005Z,5.93
2022-07-29T10:16:44.361Z,7.55
2022-07-29T10:19:11.318Z,5.20
2022-07-29T10:21:40.717Z,6.45
2022-07-29T10:24:14.960Z,8.30
2022-07-29T10:26:43.038Z,9.60
2022-07-29T10:29:09.799Z,7.50
2022-07-29T10:32:03.303Z,10.57
2022-07-29T10:34:53.145Z,11.13
2022-07-29T10:37:24.064Z,8.37
2022-07-29T10:40:41.627Z,10.05
2022-07-29T10:43:26.280Z,6.07
2022-07-29T10:45:58.764Z,5.97
2022-07-29T10:48:25.536Z,8.43
2022-07-29T10:51:01.367Z,6.63
2022-07-29T10:53:51.020Z,7.00
2022-07-29T10:56:29.504Z,6.43
2022-07-29T10:59:21.777Z,5.70
2022-07-29T11:01:53.544Z,7.22
2022-07-29T11:04:46.970Z,6.37
2022-07-29T11:07:15.269Z,4.75
2022-07-29T11:09:42.065Z,4.43
2022-07-29T11:12:39.527Z,4.18
2022-07-29T11:15:19.654Z,7.05
2022-07-29T11:17:59.375Z,7.90
2022-07-29T11:20:42.741Z,5.97
2022-07-29T11:23:26.051Z,5.72
2022-07-29T11:26:23.037Z,6.13
2022-07-29T11:29:23.131Z,8.05
2022-07-29T11:31:55.853Z,6.13
2022-07-29T11:34:37.992Z,5.95
2022-07-29T11:37:12.004Z,5.60
2022-07-29T11:42:34.383Z,6.43
2022-07-29T11:45:41.726Z,5.33
2022-07-29T11:48:31.344Z,6.65
2022-07-29T11:50:53.756Z,9.85
2022-07-29T11:53:21.009Z,6.07
2022-07-29T11:55:56.344Z,6.95
2022-07-29T11:58:26.049Z,5.10
2022-07-29T12:00:55.447Z,5.85
2022-07-29T12:03:35.285Z,5.60
2022-07-29T12:06:12.206Z,5.88
2022-07-29T12:07:01.816Z,5.82
2022-07-29T12:08:44.359Z,5.40
2022-07-29T12:11:20.874Z,5.33
2022-07-29T12:13:49.605Z,7.10
2022-07-29T12:16:25.558Z,6.60
2022-07-29T12:19:00.621Z,6.95
2022-07-29T12:21:30.074Z,8.00
2022-07-29T12:24:05.911Z,6.47
2022-07-29T12:26:36.760Z,6.28
2022-07-29T12:29:04.192Z,7.03
2022-07-29T12:31:43.448Z,5.40
2022-07-29T12:34:12.653Z,5.88
2022-07-29T12:36:39.564Z,5.50
2022-07-29T12:39:06.466Z,8.30
2022-07-29T12:41:33.418Z,6.90
2022-07-29T12:44:00.181Z,6.38
2022-07-29T12:46:27.708Z,6.88
2022-07-29T12:48:56.168Z,5.40
2022-07-29T12:51:32.021Z,5.65
2022-07-29T12:54:18.006Z,4.32
2022-07-29T12:56:45.906Z,5.85
2022-07-29T12:59:21.239Z,5.32
2022-07-29T13:01:50.353Z,4.43
2022-07-29T13:04:31.907Z,5.40
2022-07-29T13:07:09.159Z,6.32
2022-07-29T13:09:41.901Z,4.97
2022-07-29T13:12:13.933Z,4.32
2022-07-29T13:14:45.946Z,5.90
2022-07-29T13:17:32.691Z,7.00
2022-07-29T13:20:10.086Z,5.95
2022-07-29T13:22:36.880Z,9.85
2022-07-29T13:25:03.978Z,9.20
2022-07-29T13:27:33.249Z,7.37
2022-07-29T13:30:01.697Z,5.80
2022-07-29T13:32:29.773Z,6.13
2022-07-29T13:34:57.693Z,5.40
2022-07-29T13:37:25.124Z,4.18
2022-07-29T13:39:53.308Z,5.57
2022-07-29T13:42:20.677Z,5.60
2022-07-29T13:44:49.524Z,5.72
2022-07-29T13:47:17.111Z,8.10
2022-07-29T13:49:43.879Z,5.72
2022-07-29T13:52:10.627Z,6.30
2022-07-29T13:54:42.124Z,8.25
2022-07-29T13:57:11.831Z,6.18
2022-07-29T13:59:40.165Z,4.38
2022-07-29T14:02:07.647Z,7.15
2022-07-29T14:04:34.775Z,5.83
2022-07-29T14:07:03.770Z,4.18
2022-07-29T14:09:41.060Z,5.30
2022-07-29T14:12:09.585Z,4.30
2022-07-29T14:14:37.639Z,3.95
2022-07-29T14:17:07.290Z,4.23
2022-07-29T14:19:36.743Z,7.25
2022-07-29T14:22:08.950Z,5.03
2022-07-29T14:24:39.688Z,4.90
2022-07-29T14:27:07.969Z,5.43
2022-07-29T14:29:37.054Z,6.13
2022-07-29T14:32:08.750Z,5.78
2022-07-29T14:34:37.106Z,4.15
2022-07-29T14:37:06.317Z,4.97
2022-07-29T14:39:35.272Z,3.42
2022-07-29T14:42:04.031Z,4.77
2022-07-29T14:44:32.369Z,4.93
2022-07-29T14:47:07.462Z,4.00
2022-07-29T14:49:35.234Z,3.47
2022-07-29T14:52:02.070Z,6.57
2022-07-29T14:54:28.777Z,5.77
2022-07-29T14:56:58.000Z,6.75
2022-07-29T14:59:25.152Z,6.47
2022-07-29T15:01:51.937Z,7.28
2022-07-29T15:04:18.737Z,4.20
2022-07-29T15:06:45.579Z,4.43
2022-07-29T15:09:12.766Z,4.78
2022-07-29T15:11:39.626Z,6.15
2022-07-29T15:14:06.985Z,7.35
2022-07-29T15:16:36.006Z,5.30
2022-07-29T15:19:02.780Z,7.10
2022-07-29T15:21:29.526Z,4.63
2022-07-29T15:23:56.266Z,5.80
2022-07-29T15:26:23.266Z,4.00
2022-07-29T15:28:50.253Z,5.80
2022-07-29T15:31:17.161Z,6.03
2022-07-29T15:33:43.949Z,5.65
2022-07-29T15:36:25.467Z,6.30
2022-07-29T15:38:59.672Z,8.23
2022-07-29T15:41:26.470Z,5.80
2022-07-29T15:43:53.219Z,4.57
2022-07-29T15:46:41.472Z,6.63
2022-07-29T15:49:08.774Z,5.35
2022-07-29T15:51:35.698Z,6.78
2022-07-29T15:54:03.633Z,3.95
2022-07-29T15:56:30.808Z,6.77
2022-07-29T15:58:58.570Z,6.80
2022-07-29T16:01:25.459Z,5.18
2022-07-29T16:03:52.639Z,6.07
2022-07-29T16:06:19.833Z,5.05
2022-07-29T16:08:46.795Z,4.03
2022-07-29T16:11:16.036Z,7.57
2022-07-29T16:13:42.845Z,7.88
2022-07-29T16:16:10.572Z,5.13
2022-07-29T16:18:37.365Z,5.63
2022-07-29T16:21:04.231Z,7.33
2022-07-29T16:23:30.964Z,6.95
2022-07-29T16:26:00.062Z,7.07
2022-07-29T16:28:30.738Z,9.43
2022-07-29T16:30:57.869Z,7.65
2022-07-29T16:33:24.779Z,9.00
2022-07-29T16:35:52.057Z,8.15
2022-07-29T16:38:19.012Z,5.82
2022-07-29T16:40:45.772Z,4.85
2022-07-29T16:43:12.548Z,6.57
2022-07-29T16:45:45.447Z,6.40
2022-07-29T16:48:14.132Z,7.18
2022-07-29T16:50:41.377Z,4.88
2022-07-29T16:53:10.650Z,6.60
2022-07-29T16:55:42.308Z,8.13
2022-07-29T16:58:12.515Z,6.70
2022-07-29T17:00:39.564Z,6.13
2022-07-29T17:03:06.415Z,8.13
2022-07-29T17:05:50.398Z,6.43
2022-07-29T17:08:20.120Z,8.45
2022-07-29T17:10:47.361Z,9.47
2022-07-29T17:13:14.470Z,7.90
2022-07-29T17:15:43.132Z,5.88
2022-07-29T17:18:12.351Z,7.25
2022-07-29T17:20:41.321Z,6.28
2022-07-29T17:23:08.240Z,4.53
2022-07-29T17:25:35.076Z,7.47
2022-07-29T17:28:01.968Z,5.10
2022-07-29T17:30:29.640Z,6.72
2022-07-29T17:32:56.634Z,4.55
2022-07-29T17:35:41.994Z,6.30
2022-07-29T17:38:08.731Z,8.55
2022-07-29T17:40:35.532Z,7.15
2022-07-29T17:43:02.279Z,6.75
2022-07-29T17:45:48.891Z,8.65
2022-07-29T17:48:16.134Z,8.80
2022-07-29T17:50:42.983Z,6.43
2022-07-29T17:53:15.698Z,6.75
2022-07-29T17:55:48.618Z,5.57
2022-07-29T17:58:16.221Z,6.03
2022-07-29T18:00:49.476Z,6.50
2022-07-29T18:03:16.324Z,4.90
2022-07-29T18:05:43.585Z,7.78
2022-07-29T18:08:11.429Z,6.10
2022-07-29T18:10:38.287Z,7.60
2022-07-29T18:13:05.105Z,5.33
2022-07-29T18:15:31.948Z,7.32
2022-07-29T18:17:58.845Z,7.35
2022-07-29T18:20:26.607Z,5.88
2022-07-29T18:22:53.463Z,7.20
2022-07-29T18:25:20.622Z,6.40
2022-07-29T18:27:47.519Z,7.30
2022-07-29T18:30:17.144Z,9.57
2022-07-29T18:32:59.076Z,6.30
2022-07-29T18:35:31.964Z,16.33
2022-07-29T18:38:03.136Z,6.07
2022-07-29T18:40:30.428Z,13.20
2022-07-29T18:42:57.489Z,6.88
2022-07-29T18:45:28.321Z,7.43
2022-07-29T18:47:56.513Z,8.75
2022-07-29T18:50:28.844Z,12.40
2022-07-29T18:52:58.685Z,6.35
2022-07-29T18:55:26.222Z,9.02
2022-07-29T18:57:56.652Z,8.57
2022-07-29T19:00:25.261Z,5.88
2022-07-29T19:02:53.032Z,7.27
2022-07-29T19:05:20.183Z,10.40
2022-07-29T19:07:46.964Z,9.18
2022-07-29T19:10:13.745Z,9.32
2022-07-29T19:12:40.580Z,7.68
2022-07-29T19:15:08.124Z,8.77
2022-07-29T19:17:34.905Z,7.30
2022-07-29T19:20:02.218Z,8.15
2022-07-29T19:22:28.971Z,7.25
2022-07-29T19:24:56.007Z,10.55
2022-07-29T19:27:22.901Z,9.67
2022-07-29T19:29:49.651Z,9.30
2022-07-29T19:32:25.023Z,11.05
2022-07-29T19:35:10.956Z,8.27
2022-07-29T19:37:38.268Z,7.68
2022-07-29T19:40:06.320Z,8.67
2022-07-29T19:42:35.960Z,12.88
2022-07-29T19:45:02.769Z,9.77
2022-07-29T19:47:29.512Z,9.68
2022-07-29T19:49:56.216Z,8.27
2022-07-29T19:52:22.956Z,10.63
2022-07-29T19:54:51.921Z,10.13
2022-07-29T19:57:21.939Z,8.32
2022-07-29T19:59:50.917Z,8.80
2022-07-29T20:02:17.769Z,10.88
2022-07-29T20:04:44.633Z,10.03
2022-07-29T20:07:12.923Z,8.63
2022-07-29T20:09:40.914Z,9.23
2022-07-29T20:12:09.147Z,6.75
2022-07-29T20:14:38.443Z,7.15
2022-07-29T20:17:05.487Z,9.97
2022-07-29T20:19:33.154Z,8.25
2022-07-29T20:22:02.563Z,11.30
2022-07-29T20:24:29.300Z,8.23
2022-07-29T20:26:56.177Z,10.23
2022-07-29T20:29:22.999Z,15.43
2022-07-29T20:31:52.899Z,9.43
2022-07-29T20:34:23.433Z,9.88
2022-07-29T20:36:52.278Z,10.18
2022-07-29T20:39:21.042Z,9.30
2022-07-29T20:41:48.360Z,8.73
2022-07-29T20:44:15.268Z,9.70
2022-07-29T20:46:44.950Z,13.27
2022-07-29T20:49:11.866Z,10.20
2022-07-29T20:51:43.820Z,12.13
2022-07-29T20:54:11.715Z,14.87
2022-07-29T20:56:39.397Z,12.43
2022-07-29T20:59:06.201Z,8.63
2022-07-29T21:01:32.998Z,7.45
2022-07-29T21:04:01.611Z,8.75
2022-07-29T21:06:28.727Z,7.40
2022-07-29T21:08:59.588Z,8.55
2022-07-29T21:11:43.502Z,12.77
2022-07-29T21:14:19.672Z,10.35
2022-07-29T21:16:46.446Z,9.25
2022-07-29T21:19:13.269Z,11.13
2022-07-29T21:21:40.005Z,12.13
2022-07-29T21:24:08.061Z,10.63
2022-07-29T21:26:38.668Z,11.65
2022-07-29T21:29:05.497Z,11.23
2022-07-29T21:31:32.270Z,9.63
2022-07-29T21:33:59.099Z,11.45
2022-07-29T21:36:47.830Z,10.27
2022-07-29T21:39:14.944Z,11.15
2022-07-29T21:41:41.687Z,10.30
2022-07-29T21:44:08.854Z,10.47
2022-07-29T21:46:36.517Z,12.15
2022-07-29T21:49:03.362Z,9.85
2022-07-29T21:51:30.261Z,9.77
2022-07-29T21:53:57.152Z,14.25
2022-07-29T21:56:27.699Z,25.40
2022-07-29T21:58:55.237Z,12.70
2022-07-29T22:01:22.177Z,10.13
2022-07-29T22:03:51.355Z,10.93
2022-07-29T22:06:18.565Z,12.35
2022-07-29T22:08:45.715Z,10.27
2022-07-29T22:11:12.968Z,7.40
2022-07-29T22:13:39.856Z,9.32
2022-07-29T22:16:07.085Z,9.02
2022-07-29T22:18:33.950Z,7.50
2022-07-29T22:21:00.732Z,8.83
2022-07-29T22:23:27.488Z,12.82
2022-07-29T22:25:54.224Z,12.23
2022-07-29T22:28:21.207Z,11.05
2022-07-29T22:30:48.040Z,9.25
2022-07-29T22:33:17.651Z,10.47
2022-07-29T22:35:45.575Z,14.27
2022-07-29T22:38:17.330Z,12.80
2022-07-29T22:40:44.467Z,15.02
2022-07-29T22:43:11.218Z,8.50
2022-07-29T22:45:38.187Z,9.57
2022-07-29T22:48:05.573Z,11.40
2022-07-29T22:50:32.278Z,8.20
2022-07-29T22:52:59.049Z,13.32
2022-07-29T22:55:25.838Z,14.40
2022-07-29T22:57:52.653Z,10.57
2022-07-29T23:00:19.515Z,9.65
2022-07-29T23:02:47.576Z,9.35
2022-07-29T23:05:15.679Z,11.70
2022-07-29T23:07:42.651Z,13.40
2022-07-29T23:10:09.782Z,13.20
2022-07-29T23:12:36.846Z,9.15
2022-07-29T23:15:05.564Z,10.35
2022-07-29T23:17:36.042Z,13.50
2022-07-29T23:20:05.750Z,12.63
2022-07-29T23:22:32.446Z,12.97
2022-07-29T23:24:59.237Z,11.00
2022-07-29T23:27:25.993Z,7.70
2022-07-29T23:29:52.815Z,12.20
2022-07-29T23:32:19.581Z,11.85
2022-07-29T23:34:46.285Z,11.27
2022-07-29T23:37:13.072Z,12.48
2022-07-29T23:39:39.785Z,12.32
2022-07-29T23:42:06.573Z,17.85
2022-07-29T23:44:33.430Z,12.10
2022-07-29T23:47:03.366Z,12.10
2022-07-29T23:49:30.526Z,8.75
2022-07-29T23:51:57.414Z,9.65
2022-07-29T23:54:24.165Z,10.20
2022-07-29T23:56:50.900Z,10.88
2022-07-29T23:59:17.635Z,13.10
